createdAt,value
2019-04-13T00:02:41.124Z,17.90
2019-04-13T00:05:28.529Z,16.45
2019-04-13T00:08:01.597Z,16.77
2019-04-13T00:10:40.760Z,16.45
2019-04-13T00:13:10.129Z,19.73
2019-04-13T00:15:37.798Z,16.27
2019-04-13T00:18:05.565Z,16.90
2019-04-13T00:20:33.248Z,18.05
2019-04-13T00:23:01.238Z,18.10
2019-04-13T00:25:30.165Z,15.05
2019-04-13T00:27:57.913Z,18.77
2019-04-13T00:30:25.673Z,15.65
2019-04-13T00:32:53.653Z,15.80
2019-04-13T00:35:22.107Z,17.57
2019-04-13T00:37:49.948Z,17.55
2019-04-13T00:40:17.633Z,15.68
2019-04-13T00:42:45.349Z,15.08
2019-04-13T00:45:13.039Z,15.98
2019-04-13T00:47:40.919Z,22.00
2019-04-13T00:50:09.113Z,16.07
2019-04-13T00:52:37.806Z,18.57
2019-04-13T00:55:05.565Z,17.05
2019-04-13T00:57:33.544Z,20.20
2019-04-13T01:00:01.357Z,16.50
2019-04-13T01:02:30.728Z,16.85
2019-04-13T01:04:58.422Z,15.88
2019-04-13T01:07:26.173Z,19.07
2019-04-13T01:09:53.907Z,14.63
2019-04-13T01:12:21.605Z,17.00
2019-04-13T01:14:49.381Z,15.80
2019-04-13T01:17:17.059Z,16.20
2019-04-13T01:19:44.799Z,15.70
2019-04-13T01:22:12.585Z,15.20
2019-04-13T01:24:40.334Z,15.23
2019-04-13T01:27:08.004Z,18.95
2019-04-13T01:29:35.741Z,16.00
2019-04-13T01:32:03.437Z,15.85
2019-04-13T01:34:31.198Z,15.72
2019-04-13T01:36:58.973Z,16.00
2019-04-13T01:39:26.741Z,17.15
2019-04-13T01:41:54.505Z,15.75
2019-04-13T01:44:22.258Z,15.93
2019-04-13T01:46:49.909Z,16.82
2019-04-13T01:49:17.677Z,16.35
2019-04-13T01:51:45.379Z,16.30
2019-04-13T01:54:13.114Z,15.95
2019-04-13T01:56:40.805Z,15.10
2019-04-13T01:59:08.574Z,15.93
2019-04-13T02:01:48.609Z,18.07
2019-04-13T02:04:34.152Z,16.20
2019-04-13T02:07:11.527Z,20.32
2019-04-13T02:10:02.729Z,15.93
2019-04-13T02:12:32.017Z,16.05
2019-04-13T02:14:59.778Z,20.62
2019-04-13T02:17:27.656Z,17.82
2019-04-13T02:19:55.339Z,17.12
2019-04-13T02:22:23.089Z,16.95
2019-04-13T02:24:50.796Z,19.25
2019-04-13T02:27:18.582Z,16.15
2019-04-13T02:29:46.274Z,16.37
2019-04-13T02:32:14.038Z,16.32
2019-04-13T02:34:41.895Z,17.75
2019-04-13T02:37:09.723Z,17.77
2019-04-13T02:39:37.404Z,16.37
2019-04-13T02:42:05.135Z,17.65
2019-04-13T02:44:52.281Z,16.80
2019-04-13T02:47:20.015Z,17.15
2019-04-13T02:49:47.693Z,19.20
2019-04-13T02:52:15.471Z,18.80
2019-04-13T02:54:43.031Z,17.07
2019-04-13T02:57:10.890Z,16.50
2019-04-13T02:59:38.582Z,18.80
2019-04-13T03:02:06.443Z,19.80
2019-04-13T03:04:36.015Z,17.00
2019-04-13T03:07:03.863Z,20.00
2019-04-13T03:09:31.552Z,19.98
2019-04-13T03:11:59.392Z,17.95
2019-04-13T03:14:27.273Z,17.10
2019-04-13T03:17:11.497Z,18.98
2019-04-13T03:19:44.500Z,21.87
2019-04-13T03:22:13.866Z,20.92
2019-04-13T03:24:41.494Z,17.75
2019-04-13T03:27:09.337Z,20.08
2019-04-13T03:29:37.006Z,18.80
2019-04-13T03:32:04.816Z,20.90
2019-04-13T03:34:32.483Z,20.12
2019-04-13T03:37:00.291Z,19.35
2019-04-13T03:39:28.040Z,23.65
2019-04-13T03:41:55.811Z,20.17
2019-04-13T03:44:23.553Z,19.30
2019-04-13T03:46:51.250Z,21.80
2019-04-13T03:49:19.009Z,21.93
2019-04-13T03:51:46.687Z,20.20
2019-04-13T03:54:14.531Z,17.40
2019-04-13T03:56:42.252Z,23.47
2019-04-13T03:59:09.922Z,25.68
2019-04-13T04:01:37.589Z,22.42
2019-04-13T04:04:05.320Z,22.35
2019-04-13T04:06:32.993Z,21.00
2019-04-13T04:09:00.863Z,21.40
2019-04-13T04:11:28.613Z,20.32
2019-04-13T04:13:56.380Z,22.80
2019-04-13T04:16:24.070Z,23.45
2019-04-13T04:18:52.020Z,23.02
2019-04-13T04:21:19.606Z,23.38
2019-04-13T04:23:47.315Z,21.35
2019-04-13T04:26:16.806Z,20.57
2019-04-13T04:28:45.428Z,19.80
2019-04-13T04:31:13.269Z,23.18
2019-04-13T04:33:40.976Z,26.05
2019-04-13T04:36:08.955Z,21.70
2019-04-13T04:38:36.646Z,21.77
2019-04-13T04:41:04.611Z,23.62
2019-04-13T04:43:32.310Z,24.90
2019-04-13T04:46:00.053Z,24.72
2019-04-13T04:48:28.009Z,22.32
2019-04-13T04:50:55.773Z,23.65
2019-04-13T04:53:23.446Z,24.63
2019-04-13T04:55:51.211Z,24.23
2019-04-13T04:58:18.905Z,32.65
2019-04-13T05:00:46.624Z,27.48
2019-04-13T05:03:14.379Z,25.70
2019-04-13T05:05:42.134Z,34.27
2019-04-13T05:08:12.901Z,25.00
2019-04-13T05:10:39.524Z,24.07
2019-04-13T05:13:07.237Z,24.95
2019-04-13T05:15:35.005Z,27.10
2019-04-13T05:18:02.807Z,25.37
2019-04-13T05:20:30.645Z,24.65
2019-04-13T05:22:58.312Z,26.82
2019-04-13T05:25:26.096Z,24.32
2019-04-13T05:27:53.875Z,25.15
2019-04-13T05:30:21.618Z,23.52
2019-04-13T05:32:49.479Z,27.85
2019-04-13T05:35:17.175Z,24.52
2019-04-13T05:37:44.988Z,27.07
2019-04-13T05:40:12.764Z,24.30
2019-04-13T05:42:40.562Z,25.17
2019-04-13T05:45:08.542Z,24.18
2019-04-13T05:47:36.492Z,24.67
2019-04-13T05:50:05.460Z,24.00
2019-04-13T05:52:33.765Z,25.97
2019-04-13T05:55:01.468Z,25.43
2019-04-13T05:57:31.627Z,25.72
2019-04-13T06:00:00.569Z,23.60
2019-04-13T06:02:29.902Z,24.60
2019-04-13T06:04:57.669Z,28.30
2019-04-13T06:07:25.494Z,29.37
2019-04-13T06:09:54.689Z,26.42
2019-04-13T06:12:22.813Z,25.08
2019-04-13T06:14:50.422Z,29.75
2019-04-13T06:17:20.977Z,26.60
2019-04-13T06:19:47.710Z,26.80
2019-04-13T06:22:16.452Z,28.85
2019-04-13T06:24:44.892Z,29.37
2019-04-13T06:27:12.561Z,26.70
2019-04-13T06:29:40.330Z,27.55
2019-04-13T06:32:26.678Z,24.05
2019-04-13T06:35:14.307Z,28.05
2019-04-13T06:37:43.735Z,24.63
2019-04-13T06:40:11.567Z,28.00
2019-04-13T06:42:39.650Z,27.48
2019-04-13T06:45:07.621Z,24.23
2019-04-13T06:47:35.452Z,27.58
2019-04-13T06:50:03.806Z,24.63
2019-04-13T06:52:35.813Z,27.05
2019-04-13T06:55:01.610Z,24.82
2019-04-13T06:57:30.918Z,29.82
2019-04-13T06:59:58.686Z,29.02
2019-04-13T07:02:26.381Z,26.10
2019-04-13T07:04:56.419Z,24.90
2019-04-13T07:07:44.718Z,25.02
2019-04-13T07:10:30.563Z,27.80
2019-04-13T07:13:00.143Z,30.88
2019-04-13T07:15:40.373Z,31.35
2019-04-13T07:18:02.927Z,26.62
2019-04-13T07:20:30.782Z,26.27
2019-04-13T07:22:58.617Z,28.12
2019-04-13T07:25:26.493Z,27.42
2019-04-13T07:27:54.189Z,29.00
2019-04-13T07:30:21.958Z,26.90
2019-04-13T07:32:49.702Z,24.18
2019-04-13T07:35:17.494Z,26.42
2019-04-13T07:37:45.436Z,25.92
2019-04-13T07:40:13.251Z,29.07
2019-04-13T07:42:41.026Z,31.27
2019-04-13T07:45:27.133Z,28.27
2019-04-13T07:48:08.259Z,27.35
2019-04-13T07:51:00.151Z,29.65
2019-04-13T07:53:29.450Z,28.65
2019-04-13T07:56:00.083Z,26.70
2019-04-13T07:58:28.302Z,27.20
2019-04-13T08:00:58.430Z,30.37
2019-04-13T08:03:26.308Z,27.98
2019-04-13T08:05:54.112Z,24.18
2019-04-13T08:08:21.812Z,29.85
2019-04-13T08:10:49.566Z,28.23
2019-04-13T08:13:17.280Z,25.97
2019-04-13T08:15:45.510Z,23.77
2019-04-13T08:18:19.716Z,26.00
2019-04-13T08:20:49.050Z,26.15
2019-04-13T08:23:16.950Z,27.45
2019-04-13T08:25:44.983Z,25.95
2019-04-13T08:28:15.282Z,27.82
2019-04-13T08:30:43.014Z,27.22
2019-04-13T08:33:10.966Z,26.17
2019-04-13T08:35:39.946Z,30.23
2019-04-13T08:38:13.278Z,28.25
2019-04-13T08:40:38.143Z,29.37
2019-04-13T08:43:06.087Z,30.32
2019-04-13T08:45:33.812Z,26.65
2019-04-13T08:48:01.688Z,30.50
2019-04-13T08:50:29.642Z,31.75
2019-04-13T08:55:43.668Z,26.50
2019-04-13T08:58:11.882Z,28.00
2019-04-13T09:00:39.620Z,25.80
2019-04-13T09:03:07.598Z,30.40
2019-04-13T09:05:36.258Z,28.67
2019-04-13T09:08:04.062Z,27.40
2019-04-13T09:10:35.252Z,32.70
2019-04-13T09:13:03.198Z,31.87
2019-04-13T09:15:31.202Z,30.52
2019-04-13T09:18:31.453Z,27.10
2019-04-13T09:21:10.921Z,32.83
2019-04-13T09:23:45.161Z,32.20
2019-04-13T09:26:11.234Z,30.32
2019-04-13T09:28:42.870Z,28.32
2019-04-13T09:31:09.488Z,30.57
2019-04-13T09:33:37.522Z,28.80
2019-04-13T09:36:05.283Z,30.40
2019-04-13T09:38:42.398Z,28.05
2019-04-13T09:41:03.337Z,35.40
2019-04-13T09:43:41.110Z,32.35
2019-04-13T09:46:10.519Z,30.35
2019-04-13T09:48:38.329Z,36.10
2019-04-13T09:51:06.251Z,32.38
2019-04-13T09:53:34.062Z,28.98
2019-04-13T09:56:02.748Z,30.77
2019-04-13T09:58:35.061Z,30.32
2019-04-13T10:01:01.668Z,30.55
2019-04-13T10:03:29.787Z,29.95
2019-04-13T10:05:57.683Z,30.32
2019-04-13T10:08:25.613Z,29.32
2019-04-13T10:10:53.439Z,30.45
2019-04-13T10:13:39.228Z,27.45
2019-04-13T10:16:25.153Z,29.85
2019-04-13T10:18:55.305Z,29.57
2019-04-13T10:21:26.066Z,27.65
2019-04-13T10:23:53.787Z,25.65
2019-04-13T10:26:21.562Z,27.50
2019-04-13T10:28:49.297Z,29.50
2019-04-13T10:31:17.026Z,26.20
2019-04-13T10:33:44.742Z,28.02
2019-04-13T10:36:12.521Z,27.05
2019-04-13T10:38:40.380Z,30.60
2019-04-13T10:41:09.504Z,29.75
2019-04-13T10:43:37.623Z,26.57
2019-04-13T10:46:24.906Z,28.57
2019-04-13T10:49:16.553Z,30.48
2019-04-13T10:51:52.847Z,26.02
2019-04-13T10:54:22.182Z,27.70
2019-04-13T10:56:49.908Z,31.73
2019-04-13T10:59:17.695Z,30.02
2019-04-13T11:01:45.507Z,27.45
2019-04-13T11:04:13.355Z,28.95
2019-04-13T11:06:41.192Z,29.98
2019-04-13T11:09:21.529Z,31.42
2019-04-13T11:11:41.926Z,28.05
2019-04-13T11:14:09.792Z,28.77
2019-04-13T11:16:37.712Z,29.05
2019-04-13T11:19:07.787Z,26.55
2019-04-13T11:21:35.215Z,27.13
2019-04-13T11:24:03.439Z,28.38
2019-04-13T11:26:31.350Z,30.02
2019-04-13T11:28:59.171Z,31.15
2019-04-13T11:31:26.991Z,30.20
2019-04-13T11:33:54.841Z,31.68
2019-04-13T11:36:22.657Z,27.50
2019-04-13T11:38:50.749Z,27.13
2019-04-13T11:41:46.396Z,29.25
2019-04-13T11:44:35.305Z,28.32
2019-04-13T11:47:18.421Z,31.97
2019-04-13T11:49:48.026Z,30.17
2019-04-13T11:52:15.734Z,27.67
2019-04-13T11:54:43.597Z,30.70
2019-04-13T11:57:12.052Z,28.27
2019-04-13T11:59:40.048Z,28.40
2019-04-13T12:02:36.541Z,29.80
2019-04-13T12:05:21.309Z,27.82
2019-04-13T12:08:19.089Z,30.05
2019-04-13T12:11:05.474Z,29.07
2019-04-13T12:13:54.949Z,30.70
2019-04-13T12:16:55.950Z,29.98
2019-04-13T12:19:46.426Z,33.80
2019-04-13T12:22:22.456Z,33.70
2019-04-13T12:24:52.247Z,32.67
2019-04-13T12:27:20.166Z,35.03
2019-04-13T12:29:47.979Z,31.12
2019-04-13T12:32:27.202Z,33.45
2019-04-13T12:34:55.931Z,31.70
2019-04-13T12:37:23.946Z,34.45
2019-04-13T12:40:02.693Z,31.15
2019-04-13T12:42:27.071Z,31.60
2019-04-13T12:44:55.014Z,36.00
2019-04-13T12:47:22.934Z,36.58
2019-04-13T12:49:50.728Z,36.53
2019-04-13T12:52:18.923Z,33.75
2019-04-13T12:54:46.631Z,33.20
2019-04-13T12:57:16.107Z,30.40
2019-04-13T12:59:44.233Z,32.45
2019-04-13T13:02:31.589Z,31.90
2019-04-13T13:05:12.451Z,38.15
2019-04-13T13:07:41.853Z,36.15
2019-04-13T13:10:15.420Z,35.52
2019-04-13T13:12:40.358Z,36.53
2019-04-13T13:15:08.922Z,33.33
2019-04-13T13:17:37.053Z,33.90
2019-04-13T13:20:06.237Z,32.53
2019-04-13T13:22:34.621Z,32.65
2019-04-13T13:25:02.508Z,32.17
2019-04-13T13:27:30.556Z,37.03
2019-04-13T13:29:58.447Z,37.95
2019-04-13T13:32:26.367Z,37.20
2019-04-13T13:34:54.114Z,37.75
2019-04-13T13:37:21.916Z,36.40
2019-04-13T13:39:49.654Z,34.53
2019-04-13T13:42:17.470Z,36.23
2019-04-13T13:44:45.241Z,39.85
2019-04-13T13:47:13.252Z,36.50
2019-04-13T13:49:40.965Z,37.50
2019-04-13T13:52:08.783Z,36.68
2019-04-13T13:54:36.625Z,33.40
2019-04-13T13:57:04.590Z,35.25
2019-04-13T13:59:32.511Z,34.92
2019-04-13T14:02:04.318Z,30.95
2019-04-13T14:04:33.715Z,31.75
2019-04-13T14:07:01.617Z,34.98
2019-04-13T14:09:29.613Z,35.30
2019-04-13T14:11:57.372Z,36.00
2019-04-13T14:14:25.284Z,34.43
2019-04-13T14:16:53.128Z,37.93
2019-04-13T14:19:21.058Z,36.58
2019-04-13T14:21:48.899Z,37.53
2019-04-13T14:24:17.495Z,39.90
2019-04-13T14:26:45.449Z,39.40
2019-04-13T14:29:14.244Z,35.45
2019-04-13T14:31:41.947Z,38.00
2019-04-13T14:34:09.883Z,36.45
2019-04-13T14:36:37.680Z,39.83
2019-04-13T14:39:06.287Z,38.05
2019-04-13T14:41:34.107Z,36.90
2019-04-13T14:44:01.902Z,36.25
2019-04-13T14:46:30.970Z,40.55
2019-04-13T14:48:59.556Z,38.17
2019-04-13T14:51:27.371Z,37.17
2019-04-13T14:53:55.252Z,33.78
2019-04-13T14:56:23.009Z,38.58
2019-04-13T14:58:50.946Z,36.45
2019-04-13T15:01:18.759Z,41.05
2019-04-13T15:03:46.504Z,37.38
2019-04-13T15:06:14.429Z,38.33
2019-04-13T15:08:43.873Z,37.83
2019-04-13T15:11:17.102Z,40.43
2019-04-13T15:13:42.776Z,40.55
2019-04-13T15:16:15.573Z,42.58
2019-04-13T15:18:54.588Z,35.35
2019-04-13T15:21:28.630Z,39.10
2019-04-13T15:23:53.828Z,36.45
2019-04-13T15:26:23.039Z,36.48
2019-04-13T15:28:51.427Z,39.33
2019-04-13T15:31:20.682Z,39.10
2019-04-13T15:33:53.494Z,37.75
2019-04-13T15:36:23.140Z,43.38
2019-04-13T15:38:48.352Z,34.58
2019-04-13T15:41:23.853Z,36.58
2019-04-13T15:43:48.389Z,36.85
2019-04-13T15:46:17.200Z,41.80
2019-04-13T15:48:45.417Z,39.18
2019-04-13T15:51:13.715Z,37.50
2019-04-13T15:53:41.589Z,38.88
2019-04-13T15:56:09.407Z,38.15
2019-04-13T15:58:37.323Z,43.20
2019-04-13T16:01:05.217Z,35.55
2019-04-13T16:03:33.054Z,42.80
2019-04-13T16:06:00.870Z,38.83
2019-04-13T16:08:32.705Z,39.33
2019-04-13T16:11:14.156Z,39.05
2019-04-13T16:13:43.547Z,37.08
2019-04-13T16:16:11.453Z,38.02
2019-04-13T16:18:39.378Z,41.95
2019-04-13T16:21:07.154Z,41.15
2019-04-13T16:23:35.488Z,40.70
2019-04-13T16:26:04.075Z,40.85
2019-04-13T16:28:50.577Z,43.95
2019-04-13T16:31:31.104Z,36.63
2019-04-13T16:34:18.958Z,36.70
2019-04-13T16:37:11.240Z,36.88
2019-04-13T16:39:41.265Z,36.20
2019-04-13T16:42:16.282Z,36.63
2019-04-13T16:44:47.043Z,33.70
2019-04-13T16:47:28.783Z,37.15
2019-04-13T16:50:21.635Z,38.92
2019-04-13T16:53:08.135Z,39.20
2019-04-13T16:55:43.522Z,39.42
2019-04-13T16:58:35.092Z,40.17
2019-04-13T17:01:39.568Z,41.20
2019-04-13T17:04:47.087Z,41.68
2019-04-13T17:07:17.559Z,40.23
2019-04-13T17:09:45.787Z,45.55
2019-04-13T17:12:23.680Z,41.55
2019-04-13T17:14:43.514Z,41.00
2019-04-13T17:17:11.396Z,40.70
2019-04-13T17:20:00.100Z,38.85
2019-04-13T17:23:02.144Z,40.10
2019-04-13T17:25:57.875Z,39.03
2019-04-13T17:28:45.745Z,38.73
2019-04-13T17:31:24.248Z,36.40
2019-04-13T17:34:01.248Z,43.42
2019-04-13T17:36:33.368Z,37.73
2019-04-13T17:39:04.624Z,37.98
2019-04-13T17:41:42.492Z,37.15
2019-04-13T17:44:22.339Z,38.02
2019-04-13T17:47:08.415Z,37.95
2019-04-13T17:50:01.411Z,35.35
2019-04-13T17:52:59.399Z,34.18
2019-04-13T17:55:48.257Z,37.50
2019-04-13T17:58:55.497Z,37.23
2019-04-13T18:02:00.454Z,32.80
2019-04-13T18:04:46.522Z,36.60
2019-04-13T18:07:48.784Z,35.25
2019-04-13T18:10:30.093Z,37.23
2019-04-13T18:13:19.862Z,35.28
2019-04-13T18:16:27.899Z,34.67
2019-04-13T18:19:02.690Z,34.83
2019-04-13T18:21:32.853Z,37.17
2019-04-13T18:24:01.473Z,37.73
2019-04-13T18:26:29.704Z,37.78
2019-04-13T18:28:58.724Z,35.17
2019-04-13T18:31:27.151Z,38.48
2019-04-13T18:33:55.433Z,34.88
2019-04-13T18:36:23.581Z,38.85
2019-04-13T18:38:51.852Z,37.98
2019-04-13T18:41:19.706Z,35.80
2019-04-13T18:43:47.750Z,39.10
2019-04-13T18:46:15.567Z,36.58
2019-04-13T18:48:44.598Z,42.88
2019-04-13T18:51:12.698Z,42.95
2019-04-13T18:53:42.356Z,42.88
2019-04-13T18:56:10.412Z,37.23
2019-04-13T18:58:39.539Z,39.48
2019-04-13T19:01:07.530Z,36.48
2019-04-13T19:03:35.514Z,39.27
2019-04-13T19:06:03.436Z,39.10
2019-04-13T19:08:31.434Z,32.03
2019-04-13T19:10:59.286Z,37.28
2019-04-13T19:13:27.198Z,33.45
2019-04-13T19:15:55.097Z,35.90
2019-04-13T19:18:22.832Z,35.00
2019-04-13T19:20:50.794Z,32.10
2019-04-13T19:23:18.806Z,32.98
2019-04-13T19:25:46.745Z,31.33
2019-04-13T19:28:14.575Z,33.78
2019-04-13T19:30:42.448Z,35.88
2019-04-13T19:33:10.266Z,32.75
2019-04-13T19:35:38.091Z,32.10
2019-04-13T19:38:05.806Z,34.10
2019-04-13T19:40:33.686Z,34.90
2019-04-13T19:43:01.683Z,31.77
2019-04-13T19:45:29.722Z,31.15
2019-04-13T19:47:57.565Z,33.55
2019-04-13T19:50:25.505Z,33.92
2019-04-13T19:53:11.583Z,34.83
2019-04-13T19:55:41.127Z,39.15
2019-04-13T19:58:10.412Z,35.98
2019-04-13T20:00:42.178Z,35.20
2019-04-13T20:03:11.534Z,33.83
2019-04-13T20:05:39.343Z,35.83
2019-04-13T20:08:07.162Z,36.00
2019-04-13T20:10:35.017Z,35.90
2019-04-13T20:13:02.632Z,36.00
2019-04-13T20:15:31.371Z,36.50
2019-04-13T20:17:59.274Z,38.17
2019-04-13T20:20:27.231Z,35.38
2019-04-13T20:22:54.970Z,39.33
2019-04-13T20:25:22.797Z,39.25
2019-04-13T20:27:51.890Z,39.20
2019-04-13T20:30:19.922Z,38.48
2019-04-13T20:32:47.762Z,40.05
2019-04-13T20:35:15.517Z,39.58
2019-04-13T20:37:44.684Z,39.80
2019-04-13T20:40:35.957Z,36.93
2019-04-13T20:43:05.577Z,38.55
2019-04-13T20:45:33.327Z,40.05
2019-04-13T20:48:02.698Z,36.63
2019-04-13T20:50:31.695Z,36.90
2019-04-13T20:52:59.687Z,38.85
2019-04-13T20:55:28.266Z,36.05
2019-04-13T20:57:56.638Z,35.83
2019-04-13T21:00:24.756Z,37.63
2019-04-13T21:02:52.733Z,37.83
2019-04-13T21:05:20.995Z,40.17
2019-04-13T21:07:49.124Z,37.70
2019-04-13T21:10:16.962Z,39.50
2019-04-13T21:12:44.789Z,37.98
2019-04-13T21:15:13.825Z,38.02
2019-04-13T21:17:43.994Z,39.73
2019-04-13T21:20:14.393Z,42.53
2019-04-13T21:22:42.323Z,38.60
2019-04-13T21:25:10.198Z,37.73
2019-04-13T21:27:59.572Z,39.25
2019-04-13T21:30:27.540Z,40.28
2019-04-13T21:33:14.759Z,39.65
2019-04-13T21:35:42.723Z,39.08
2019-04-13T21:38:10.680Z,44.10
2019-04-13T21:40:38.536Z,44.23
2019-04-13T21:43:06.390Z,42.48
2019-04-13T21:45:34.292Z,41.77
2019-04-13T21:48:02.378Z,41.55
2019-04-13T21:50:57.233Z,42.43
2019-04-13T21:53:48.570Z,41.53
2019-04-13T21:56:18.748Z,43.25
2019-04-13T21:58:46.977Z,41.48
2019-04-13T22:01:34.569Z,41.30
2019-04-13T22:04:06.650Z,41.45
2019-04-13T22:06:35.312Z,40.73
2019-04-13T22:09:06.637Z,41.60
2019-04-13T22:11:36.560Z,41.35
2019-04-13T22:14:06.840Z,44.73
2019-04-13T22:16:34.445Z,42.88
2019-04-13T22:19:02.651Z,43.87
2019-04-13T22:21:30.806Z,43.28
2019-04-13T22:23:58.754Z,38.30
2019-04-13T22:26:26.663Z,48.73
2019-04-13T22:29:13.646Z,43.68
2019-04-13T22:32:05.785Z,44.55
2019-04-13T22:34:59.056Z,44.63
2019-04-13T22:37:29.918Z,45.20
2019-04-13T22:39:57.877Z,44.55
2019-04-13T22:42:25.766Z,47.45
2019-04-13T22:45:01.262Z,45.10
2019-04-13T22:47:23.515Z,46.00
2019-04-13T22:50:11.585Z,49.93
2019-04-13T22:53:00.504Z,41.50
2019-04-13T22:55:50.221Z,41.90
2019-04-13T22:58:20.413Z,44.75
2019-04-13T23:00:54.129Z,45.92
2019-04-13T23:03:24.251Z,44.45
2019-04-13T23:05:52.410Z,47.75
2019-04-13T23:08:20.665Z,45.23
2019-04-13T23:10:48.680Z,44.50
2019-04-13T23:13:16.955Z,40.50
2019-04-13T23:15:45.300Z,47.90
2019-04-13T23:18:14.575Z,40.88
2019-04-13T23:20:43.141Z,46.08
2019-04-13T23:23:11.550Z,41.80
2019-04-13T23:25:39.868Z,47.40
2019-04-13T23:28:07.799Z,40.10
2019-04-13T23:30:35.610Z,43.85
2019-04-13T23:33:04.158Z,42.73
2019-04-13T23:35:32.350Z,43.55
2019-04-13T23:38:02.770Z,41.45
2019-04-13T23:40:33.252Z,41.80
2019-04-13T23:43:01.528Z,40.10
2019-04-13T23:45:33.506Z,43.10
2019-04-13T23:48:00.381Z,41.25
2019-04-13T23:50:28.520Z,40.43
2019-04-13T23:52:56.638Z,42.93
2019-04-13T23:55:46.823Z,44.40
2019-04-13T23:58:30.225Z,46.25
